sensor_id;sensor_type;location;lat;lon;timestamp;pressure;altitude;pressure_sealevel;temperature;humidity
73651;BME280;61944;52.538;6.108;2023-12-14T05:48:05;101369.56;;;5.82;100.00
73651;BME280;61944;52.538;6.108;2023-12-14T05:50:30;101381.69;;;5.77;100.00
73651;BME280;61944;52.538;6.108;2023-12-14T05:52:56;101388.63;;;5.54;100.00
73651;BME280;61944;52.538;6.108;2023-12-14T05:55:21;101400.41;;;5.50;100.00
73651;BME280;61944;52.538;6.108;2023-12-14T05:57:48;101395.09;;;5.75;100.00
73651;BME280;61944;52.538;6.108;2023-12-14T06:00:13;101395.16;;;5.58;100.00
73651;BME280;61944;52.538;6.108;2023-12-14T06:02:39;101402.44;;;5.71;100.00
73651;BME280;61944;52.538;6.108;2023-12-14T06:05:06;101398.72;;;5.58;100.00
73651;BME280;61944;52.538;6.108;2023-12-14T06:07:32;101411.22;;;5.90;100.00
73651;BME280;61944;52.538;6.108;2023-12-14T06:09:57;101413.06;;;5.69;100.00
73651;BME280;61944;52.538;6.108;2023-12-14T06:12:23;101407.34;;;5.74;100.00
73651;BME280;61944;52.538;6.108;2023-12-14T06:14:48;101412.84;;;5.91;100.00
73651;BME280;61944;52.538;6.108;2023-12-14T06:17:15;101427.22;;;6.02;100.00
73651;BME280;61944;52.538;6.108;2023-12-14T06:19:40;101428.72;;;5.91;100.00
73651;BME280;61944;52.538;6.108;2023-12-14T06:22:06;101433.44;;;5.90;100.00
73651;BME280;61944;52.538;6.108;2023-12-14T06:24:31;101431.53;;;5.82;100.00
73651;BME280;61944;52.538;6.108;2023-12-14T06:26:56;101436.63;;;5.63;100.00
73651;BME280;61944;52.538;6.108;2023-12-14T06:29:22;101448.19;;;5.82;100.00
73651;BME280;61944;52.538;6.108;2023-12-14T06:31:47;101456.28;;;6.05;100.00
73651;BME280;61944;52.538;6.108;2023-12-14T06:34:15;101456.50;;;6.00;100.00
73651;BME280;61944;52.538;6.108;2023-12-14T06:36:44;101457.94;;;6.06;100.00
73651;BME280;61944;52.538;6.108;2023-12-14T06:39:10;101469.06;;;6.06;100.00
73651;BME280;61944;52.538;6.108;2023-12-14T06:41:36;101474.09;;;6.13;100.00
73651;BME280;61944;52.538;6.108;2023-12-14T06:44:01;101474.91;;;6.13;100.00
73651;BME280;61944;52.538;6.108;2023-12-14T06:46:27;101478.47;;;6.22;100.00
73651;BME280;61944;52.538;6.108;2023-12-14T06:48:52;101482.91;;;6.15;100.00
73651;BME280;61944;52.538;6.108;2023-12-14T06:51:18;101472.59;;;6.15;100.00
73651;BME280;61944;52.538;6.108;2023-12-14T06:53:44;101472.59;;;6.15;100.00
73651;BME280;61944;52.538;6.108;2023-12-14T06:56:11;101479.78;;;7.05;100.00
73651;BME280;61944;52.538;6.108;2023-12-14T06:58:38;101474.06;;;6.51;100.00
73651;BME280;61944;52.538;6.108;2023-12-14T07:01:03;101476.09;;;6.42;100.00
73651;BME280;61944;52.538;6.108;2023-12-14T07:03:29;101483.00;;;6.36;100.00
73651;BME280;61944;52.538;6.108;2023-12-14T07:05:54;101492.19;;;6.27;100.00
73651;BME280;61944;52.538;6.108;2023-12-14T07:08:19;101496.13;;;6.26;100.00
73651;BME280;61944;52.538;6.108;2023-12-14T07:10:45;101499.31;;;6.46;100.00
73651;BME280;61944;52.538;6.108;2023-12-14T07:13:10;101509.81;;;6.31;100.00
73651;BME280;61944;52.538;6.108;2023-12-14T07:15:36;101519.34;;;6.30;100.00
73651;BME280;61944;52.538;6.108;2023-12-14T07:18:01;101517.88;;;6.24;100.00
73651;BME280;61944;52.538;6.108;2023-12-14T07:20:27;101527.84;;;6.25;100.00
73651;BME280;61944;52.538;6.108;2023-12-14T07:22:52;101529.66;;;6.21;100.00
73651;BME280;61944;52.538;6.108;2023-12-14T07:25:18;101539.16;;;6.20;100.00
73651;BME280;61944;52.538;6.108;2023-12-14T07:27:43;101523.47;;;6.16;100.00
73651;BME280;61944;52.538;6.108;2023-12-14T07:30:09;101534.44;;;6.12;100.00
73651;BME280;61944;52.538;6.108;2023-12-14T07:32:35;101535.44;;;6.07;100.00
73651;BME280;61944;52.538;6.108;2023-12-14T07:35:00;101549.69;;;7.67;100.00
73651;BME280;61944;52.538;6.108;2023-12-14T07:37:25;101554.66;;;6.68;100.00
73651;BME280;61944;52.538;6.108;2023-12-14T07:39:51;101567.66;;;6.47;100.00
73651;BME280;61944;52.538;6.108;2023-12-14T07:42:17;101570.16;;;6.40;100.00
73651;BME280;61944;52.538;6.108;2023-12-14T07:44:45;101576.06;;;6.29;100.00
73651;BME280;61944;52.538;6.108;2023-12-14T07:47:10;101576.63;;;6.05;100.00
73651;BME280;61944;52.538;6.108;2023-12-14T07:49:35;101581.53;;;5.91;100.00
73651;BME280;61944;52.538;6.108;2023-12-14T07:52:02;101582.84;;;5.76;100.00
73651;BME280;61944;52.538;6.108;2023-12-14T07:54:28;101587.56;;;5.93;100.00
73651;BME280;61944;52.538;6.108;2023-12-14T07:56:54;101597.41;;;5.99;100.00
73651;BME280;61944;52.538;6.108;2023-12-14T07:59:19;101598.50;;;6.07;100.00
73651;BME280;61944;52.538;6.108;2023-12-14T08:01:45;101598.50;;;6.07;100.00
73651;BME280;61944;52.538;6.108;2023-12-14T08:04:11;101595.75;;;6.07;100.00
73651;BME280;61944;52.538;6.108;2023-12-14T08:06:36;101614.22;;;6.12;100.00
73651;BME280;61944;52.538;6.108;2023-12-14T08:09:04;101613.09;;;6.04;100.00
73651;BME280;61944;52.538;6.108;2023-12-14T08:11:30;101618.97;;;6.02;100.00
73651;BME280;61944;52.538;6.108;2023-12-14T08:13:56;101614.56;;;6.10;100.00
73651;BME280;61944;52.538;6.108;2023-12-14T08:16:21;101622.06;;;6.01;100.00
73651;BME280;61944;52.538;6.108;2023-12-14T08:18:46;101632.19;;;5.79;100.00
73651;BME280;61944;52.538;6.108;2023-12-14T08:21:13;101638.56;;;5.88;100.00
73651;BME280;61944;52.538;6.108;2023-12-14T08:23:38;101643.28;;;5.62;100.00
73651;BME280;61944;52.538;6.108;2023-12-14T08:26:04;101645.25;;;5.87;100.00
73651;BME280;61944;52.538;6.108;2023-12-14T08:28:29;101641.19;;;5.85;100.00
73651;BME280;61944;52.538;6.108;2023-12-14T08:30:55;101635.34;;;5.95;100.00
73651;BME280;61944;52.538;6.108;2023-12-14T08:33:23;101644.28;;;5.83;100.00
73651;BME280;61944;52.538;6.108;2023-12-14T08:35:48;101644.78;;;5.77;100.00
73651;BME280;61944;52.538;6.108;2023-12-14T08:38:14;101649.19;;;5.78;100.00
73651;BME280;61944;52.538;6.108;2023-12-14T08:40:39;101640.38;;;5.93;100.00
73651;BME280;61944;52.538;6.108;2023-12-14T08:43:05;101647.91;;;6.01;100.00
73651;BME280;61944;52.538;6.108;2023-12-14T08:45:30;101650.19;;;5.90;100.00
73651;BME280;61944;52.538;6.108;2023-12-14T08:47:55;101654.59;;;6.00;100.00
73651;BME280;61944;52.538;6.108;2023-12-14T08:50:21;101658.00;;;5.71;100.00
73651;BME280;61944;52.538;6.108;2023-12-14T08:52:46;101663.91;;;5.87;100.00
73651;BME280;61944;52.538;6.108;2023-12-14T08:55:12;101668.47;;;5.74;100.00
73651;BME280;61944;52.538;6.108;2023-12-14T08:57:38;101683.00;;;5.71;100.00
73651;BME280;61944;52.538;6.108;2023-12-14T09:00:04;101691.63;;;5.43;100.00
73651;BME280;61944;52.538;6.108;2023-12-14T09:02:32;101690.78;;;5.34;100.00
73651;BME280;61944;52.538;6.108;2023-12-14T09:04:58;101693.41;;;5.48;100.00
73651;BME280;61944;52.538;6.108;2023-12-14T09:07:24;101688.03;;;5.43;100.00
73651;BME280;61944;52.538;6.108;2023-12-14T09:09:49;101702.19;;;5.33;100.00
73651;BME280;61944;52.538;6.108;2023-12-14T09:12:15;101702.94;;;5.64;100.00
73651;BME280;61944;52.538;6.108;2023-12-14T09:14:40;101705.06;;;5.59;100.00
73651;BME280;61944;52.538;6.108;2023-12-14T09:17:06;101707.69;;;5.73;100.00
73651;BME280;61944;52.538;6.108;2023-12-14T09:19:31;101718.78;;;5.55;100.00
73651;BME280;61944;52.538;6.108;2023-12-14T09:21:57;101709.34;;;5.82;100.00
73651;BME280;61944;52.538;6.108;2023-12-14T09:24:23;101712.66;;;6.02;100.00
73651;BME280;61944;52.538;6.108;2023-12-14T09:26:48;101717.41;;;6.10;100.00
73651;BME280;61944;52.538;6.108;2023-12-14T09:29:13;101713.13;;;6.04;100.00
73651;BME280;61944;52.538;6.108;2023-12-14T09:31:44;101719.81;;;6.03;100.00
73651;BME280;61944;52.538;6.108;2023-12-14T09:34:10;101722.63;;;6.12;100.00
73651;BME280;61944;52.538;6.108;2023-12-14T09:36:36;101734.22;;;6.05;100.00
73651;BME280;61944;52.538;6.108;2023-12-14T09:39:01;101722.94;;;6.19;100.00
73651;BME280;61944;52.538;6.108;2023-12-14T09:41:27;101728.19;;;6.20;100.00
73651;BME280;61944;52.538;6.108;2023-12-14T09:43:53;101737.84;;;6.14;100.00
73651;BME280;61944;52.538;6.108;2023-12-14T09:46:18;101734.38;;;6.26;100.00
73651;BME280;61944;52.538;6.108;2023-12-14T09:48:46;101735.72;;;6.28;100.00
73651;BME280;61944;52.538;6.108;2023-12-14T09:51:12;101730.97;;;6.29;100.00
73651;BME280;61944;52.538;6.108;2023-12-14T09:53:38;101734.06;;;6.27;100.00
73651;BME280;61944;52.538;6.108;2023-12-14T09:56:04;101750.91;;;6.22;100.00
73651;BME280;61944;52.538;6.108;2023-12-14T09:58:32;101759.09;;;6.27;100.00
73651;BME280;61944;52.538;6.108;2023-12-14T10:00:58;101752.88;;;6.30;100.00
73651;BME280;61944;52.538;6.108;2023-12-14T10:03:27;101763.66;;;6.23;100.00
73651;BME280;61944;52.538;6.108;2023-12-14T10:05:57;101761.84;;;6.36;100.00
73651;BME280;61944;52.538;6.108;2023-12-14T10:08:23;101767.09;;;6.20;100.00
73651;BME280;61944;52.538;6.108;2023-12-14T10:10:51;101773.00;;;6.27;100.00
73651;BME280;61944;52.538;6.108;2023-12-14T10:13:18;101778.41;;;6.33;100.00
73651;BME280;61944;52.538;6.108;2023-12-14T10:15:45;101780.19;;;6.37;100.00
73651;BME280;61944;52.538;6.108;2023-12-14T10:18:11;101782.63;;;6.21;100.00
73651;BME280;61944;52.538;6.108;2023-12-14T10:20:37;101783.28;;;6.18;100.00
73651;BME280;61944;52.538;6.108;2023-12-14T10:23:04;101788.06;;;6.35;100.00
73651;BME280;61944;52.538;6.108;2023-12-14T10:25:30;101790.03;;;6.35;100.00
73651;BME280;61944;52.538;6.108;2023-12-14T10:27:57;101799.50;;;6.42;100.00
73651;BME280;61944;52.538;6.108;2023-12-14T10:30:22;101795.72;;;6.38;100.00
73651;BME280;61944;52.538;6.108;2023-12-14T10:32:48;101797.38;;;6.30;100.00
73651;BME280;61944;52.538;6.108;2023-12-14T10:35:14;101800.97;;;6.40;100.00
73651;BME280;61944;52.538;6.108;2023-12-14T10:37:42;101805.84;;;6.43;100.00
73651;BME280;61944;52.538;6.108;2023-12-14T10:40:09;101817.97;;;6.38;100.00
73651;BME280;61944;52.538;6.108;2023-12-14T10:42:39;101815.69;;;6.40;100.00
73651;BME280;61944;52.538;6.108;2023-12-14T10:45:08;101816.34;;;6.46;100.00
73651;BME280;61944;52.538;6.108;2023-12-14T10:47:37;101811.41;;;6.43;100.00
73651;BME280;61944;52.538;6.108;2023-12-14T10:50:05;101812.41;;;6.47;100.00
73651;BME280;61944;52.538;6.108;2023-12-14T10:52:31;101818.63;;;6.44;100.00
73651;BME280;61944;52.538;6.108;2023-12-14T10:55:06;101819.94;;;6.46;100.00
73651;BME280;61944;52.538;6.108;2023-12-14T10:57:33;101814.69;;;6.27;100.00
73651;BME280;61944;52.538;6.108;2023-12-14T11:00:00;101802.94;;;6.30;100.00
73651;BME280;61944;52.538;6.108;2023-12-14T11:02:27;101814.69;;;6.27;100.00
73651;BME280;61944;52.538;6.108;2023-12-14T11:04:57;101803.56;;;6.27;100.00
73651;BME280;61944;52.538;6.108;2023-12-14T11:07:42;101808.81;;;6.38;100.00
73651;BME280;61944;52.538;6.108;2023-12-14T11:10:08;101820.25;;;6.45;100.00
73651;BME280;61944;52.538;6.108;2023-12-14T11:12:34;101816.00;;;6.39;100.00
73651;BME280;61944;52.538;6.108;2023-12-14T11:14:59;101818.47;;;6.40;100.00
73651;BME280;61944;52.538;6.108;2023-12-14T11:17:25;101822.22;;;6.44;100.00
73651;BME280;61944;52.538;6.108;2023-12-14T11:19:50;101829.75;;;6.35;100.00
73651;BME280;61944;52.538;6.108;2023-12-14T11:22:27;101827.47;;;6.46;100.00
73651;BME280;61944;52.538;6.108;2023-12-14T11:24:55;101823.66;;;6.07;100.00
73651;BME280;61944;52.538;6.108;2023-12-14T11:27:29;101826.00;;;6.31;100.00
73651;BME280;61944;52.538;6.108;2023-12-14T11:29:54;101838.91;;;6.36;100.00
73651;BME280;61944;52.538;6.108;2023-12-14T11:32:21;101840.72;;;6.40;100.00
73651;BME280;61944;52.538;6.108;2023-12-14T11:34:46;101845.78;;;6.29;100.00
73651;BME280;61944;52.538;6.108;2023-12-14T11:37:12;101839.91;;;6.31;100.00
73651;BME280;61944;52.538;6.108;2023-12-14T11:39:38;101830.91;;;6.51;100.00
73651;BME280;61944;52.538;6.108;2023-12-14T11:42:04;101847.25;;;6.36;100.00
73651;BME280;61944;52.538;6.108;2023-12-14T11:44:32;101850.84;;;6.45;100.00
73651;BME280;61944;52.538;6.108;2023-12-14T11:46:57;101856.88;;;6.12;100.00
73651;BME280;61944;52.538;6.108;2023-12-14T11:49:25;101864.59;;;6.33;100.00
73651;BME280;61944;52.538;6.108;2023-12-14T11:51:52;101866.41;;;6.28;100.00
73651;BME280;61944;52.538;6.108;2023-12-14T11:54:18;101873.59;;;6.47;100.00
73651;BME280;61944;52.538;6.108;2023-12-14T11:56:48;101870.00;;;6.46;100.00
73651;BME280;61944;52.538;6.108;2023-12-14T11:59:15;101868.69;;;6.53;100.00
73651;BME280;61944;52.538;6.108;2023-12-14T12:02:02;101858.19;;;6.15;100.00
73651;BME280;61944;52.538;6.108;2023-12-14T12:04:28;101864.59;;;6.41;100.00
73651;BME280;61944;52.538;6.108;2023-12-14T12:07:04;101870.97;;;6.33;100.00
73651;BME280;61944;52.538;6.108;2023-12-14T12:09:41;101875.34;;;6.17;100.00
73651;BME280;61944;52.538;6.108;2023-12-14T12:12:10;101875.25;;;6.48;100.00
73651;BME280;61944;52.538;6.108;2023-12-14T12:14:38;101868.03;;;6.47;100.00
73651;BME280;61944;52.538;6.108;2023-12-14T12:17:04;101871.16;;;6.54;100.00
73651;BME280;61944;52.538;6.108;2023-12-14T12:19:34;101864.44;;;6.55;100.00
73651;BME280;61944;52.538;6.108;2023-12-14T12:22:00;101860.69;;;6.60;100.00
73651;BME280;61944;52.538;6.108;2023-12-14T12:24:26;101862.31;;;6.61;100.00
73651;BME280;61944;52.538;6.108;2023-12-14T12:26:51;101872.13;;;6.41;100.00
73651;BME280;61944;52.538;6.108;2023-12-14T12:29:16;101872.16;;;6.58;100.00
73651;BME280;61944;52.538;6.108;2023-12-14T12:31:42;101881.78;;;6.52;100.00
73651;BME280;61944;52.538;6.108;2023-12-14T12:34:08;101891.63;;;6.58;100.00
73651;BME280;61944;52.538;6.108;2023-12-14T12:36:33;101887.94;;;6.14;100.00
73651;BME280;61944;52.538;6.108;2023-12-14T12:38:59;101877.16;;;6.30;100.00
73651;BME280;61944;52.538;6.108;2023-12-14T12:41:24;101893.84;;;6.21;100.00
73651;BME280;61944;52.538;6.108;2023-12-14T12:43:49;101876.88;;;6.40;100.00
73651;BME280;61944;52.538;6.108;2023-12-14T12:46:15;101881.28;;;6.41;100.00
73651;BME280;61944;52.538;6.108;2023-12-14T12:48:40;101890.28;;;6.47;100.00
73651;BME280;61944;52.538;6.108;2023-12-14T12:51:06;101894.53;;;6.53;100.00
73651;BME280;61944;52.538;6.108;2023-12-14T12:53:31;101896.63;;;6.21;100.00
73651;BME280;61944;52.538;6.108;2023-12-14T12:55:58;101895.84;;;6.47;100.00
73651;BME280;61944;52.538;6.108;2023-12-14T12:58:23;101895.72;;;6.52;100.00
73651;BME280;61944;52.538;6.108;2023-12-14T13:00:49;101901.59;;;6.50;100.00
73651;BME280;61944;52.538;6.108;2023-12-14T13:03:14;101910.69;;;6.16;100.00
73651;BME280;61944;52.538;6.108;2023-12-14T13:05:39;101906.75;;;6.26;100.00
73651;BME280;61944;52.538;6.108;2023-12-14T13:08:05;101908.00;;;6.86;100.00
73651;BME280;61944;52.538;6.108;2023-12-14T13:10:30;101907.00;;;6.90;100.00
73651;BME280;61944;52.538;6.108;2023-12-14T13:12:56;101909.31;;;6.80;100.00
73651;BME280;61944;52.538;6.108;2023-12-14T13:15:25;101919.56;;;6.44;100.00
73651;BME280;61944;52.538;6.108;2023-12-14T13:17:52;101914.78;;;6.19;100.00
73651;BME280;61944;52.538;6.108;2023-12-14T13:20:17;101907.31;;;6.37;100.00
73651;BME280;61944;52.538;6.108;2023-12-14T13:22:43;101907.31;;;6.54;100.00
73651;BME280;61944;52.538;6.108;2023-12-14T13:25:09;101908.31;;;6.58;100.00
73651;BME280;61944;52.538;6.108;2023-12-14T13:27:34;101908.94;;;6.46;100.00
73651;BME280;61944;52.538;6.108;2023-12-14T13:30:02;101915.97;;;6.44;100.00
73651;BME280;61944;52.538;6.108;2023-12-14T13:32:27;101916.59;;;6.32;100.00
73651;BME280;61944;52.538;6.108;2023-12-14T13:34:53;101915.53;;;6.02;100.00
73651;BME280;61944;52.538;6.108;2023-12-14T13:37:18;101911.41;;;6.48;100.00
73651;BME280;61944;52.538;6.108;2023-12-14T13:39:44;101912.88;;;6.37;100.00
73651;BME280;61944;52.538;6.108;2023-12-14T13:42:09;101921.22;;;6.45;100.00
73651;BME280;61944;52.538;6.108;2023-12-14T13:44:35;101922.84;;;6.46;100.00
73651;BME280;61944;52.538;6.108;2023-12-14T13:47:04;101926.31;;;6.52;100.00
73651;BME280;61944;52.538;6.108;2023-12-14T13:49:29;101935.44;;;6.44;100.00
73651;BME280;61944;52.538;6.108;2023-12-14T13:51:55;101939.00;;;6.27;100.00
73651;BME280;61944;52.538;6.108;2023-12-14T13:54:20;101943.13;;;6.47;100.00
73651;BME280;61944;52.538;6.108;2023-12-14T13:56:45;101942.19;;;6.51;100.00
73651;BME280;61944;52.538;6.108;2023-12-14T13:59:11;101938.25;;;6.61;100.00
73651;BME280;61944;52.538;6.108;2023-12-14T14:01:36;101948.63;;;6.21;100.00
73651;BME280;61944;52.538;6.108;2023-12-14T14:04:03;101946.53;;;6.26;100.00
73651;BME280;61944;52.538;6.108;2023-12-14T14:06:28;101945.84;;;6.21;100.00
73651;BME280;61944;52.538;6.108;2023-12-14T14:08:54;101952.75;;;6.32;100.00
73651;BME280;61944;52.538;6.108;2023-12-14T14:11:20;101960.75;;;6.25;100.00
73651;BME280;61944;52.538;6.108;2023-12-14T14:13:47;101969.44;;;6.41;100.00
73651;BME280;61944;52.538;6.108;2023-12-14T14:16:12;101971.34;;;6.14;100.00
73651;BME280;61944;52.538;6.108;2023-12-14T14:18:38;101979.59;;;6.37;100.00
73651;BME280;61944;52.538;6.108;2023-12-14T14:21:03;101984.84;;;6.47;100.00
73651;BME280;61944;52.538;6.108;2023-12-14T14:23:32;101975.47;;;6.34;100.00
73651;BME280;61944;52.538;6.108;2023-12-14T14:25:58;101980.91;;;6.39;100.00
73651;BME280;61944;52.538;6.108;2023-12-14T14:28:23;101996.06;;;6.16;100.00
73651;BME280;61944;52.538;6.108;2023-12-14T14:30:48;101998.91;;;6.02;100.00
73651;BME280;61944;52.538;6.108;2023-12-14T14:33:14;101994.84;;;6.08;100.00
73651;BME280;61944;52.538;6.108;2023-12-14T14:35:47;101997.69;;;6.17;100.00
73651;BME280;61944;52.538;6.108;2023-12-14T14:38:13;102002.31;;;6.39;100.00
73651;BME280;61944;52.538;6.108;2023-12-14T14:40:39;102009.97;;;6.24;100.00
73651;BME280;61944;52.538;6.108;2023-12-14T14:43:05;102006.25;;;6.38;100.00
73651;BME280;61944;52.538;6.108;2023-12-14T14:45:30;102021.50;;;6.49;100.00
73651;BME280;61944;52.538;6.108;2023-12-14T14:47:56;102025.88;;;6.33;100.00
73651;BME280;61944;52.538;6.108;2023-12-14T14:50:21;102037.16;;;6.36;100.00
73651;BME280;61944;52.538;6.108;2023-12-14T14:52:47;102029.00;;;6.40;100.00
73651;BME280;61944;52.538;6.108;2023-12-14T14:55:13;102031.84;;;6.17;100.00
73651;BME280;61944;52.538;6.108;2023-12-14T14:57:39;102042.00;;;6.22;100.00
73651;BME280;61944;52.538;6.108;2023-12-14T15:00:05;102040.78;;;6.37;100.00
73651;BME280;61944;52.538;6.108;2023-12-14T15:02:31;102042.41;;;6.38;100.00
73651;BME280;61944;52.538;6.108;2023-12-14T15:04:56;102043.34;;;6.24;100.00
73651;BME280;61944;52.538;6.108;2023-12-14T15:07:22;102048.91;;;6.24;100.00
73651;BME280;61944;52.538;6.108;2023-12-14T15:09:47;102055.47;;;6.28;100.00
73651;BME280;61944;52.538;6.108;2023-12-14T15:12:12;102061.66;;;6.25;100.00
73651;BME280;61944;52.538;6.108;2023-12-14T15:14:38;102069.50;;;6.23;100.00
73651;BME280;61944;52.538;6.108;2023-12-14T15:17:03;102074.28;;;6.31;100.00
73651;BME280;61944;52.538;6.108;2023-12-14T15:19:29;102078.06;;;6.36;100.00
73651;BME280;61944;52.538;6.108;2023-12-14T15:21:54;102077.53;;;6.25;100.00
73651;BME280;61944;52.538;6.108;2023-12-14T15:24:19;102075.84;;;5.93;100.00
73651;BME280;61944;52.538;6.108;2023-12-14T15:26:45;102076.88;;;5.97;100.00
73651;BME280;61944;52.538;6.108;2023-12-14T15:29:10;102077.72;;;6.28;100.00
73651;BME280;61944;52.538;6.108;2023-12-14T15:31:36;102082.78;;;6.66;100.00
73651;BME280;61944;52.538;6.108;2023-12-14T15:34:01;102092.56;;;6.24;100.00
73651;BME280;61944;52.538;6.108;2023-12-14T15:36:27;102098.03;;;6.38;100.00
73651;BME280;61944;52.538;6.108;2023-12-14T15:38:53;102095.25;;;6.38;100.00
73651;BME280;61944;52.538;6.108;2023-12-14T15:41:18;102106.84;;;6.31;100.00
73651;BME280;61944;52.538;6.108;2023-12-14T15:43:44;102113.38;;;6.26;100.00
73651;BME280;61944;52.538;6.108;2023-12-14T15:46:10;102109.13;;;6.29;100.00
73651;BME280;61944;52.538;6.108;2023-12-14T15:48:36;102110.25;;;6.59;100.00
73651;BME280;61944;52.538;6.108;2023-12-14T15:51:05;102113.03;;;6.28;100.00
73651;BME280;61944;52.538;6.108;2023-12-14T15:53:31;102099.50;;;6.35;100.00
73651;BME280;61944;52.538;6.108;2023-12-14T15:55:58;102101.72;;;6.24;100.00
73651;BME280;61944;52.538;6.108;2023-12-14T15:58:24;102108.13;;;6.02;100.00
73651;BME280;61944;52.538;6.108;2023-12-14T16:00:49;102123.59;;;6.17;100.00
73651;BME280;61944;52.538;6.108;2023-12-14T16:03:15;102124.09;;;6.19;100.00
73651;BME280;61944;52.538;6.108;2023-12-14T16:05:40;102121.97;;;6.16;100.00
73651;BME280;61944;52.538;6.108;2023-12-14T16:08:06;102130.66;;;6.23;100.00
73651;BME280;61944;52.538;6.108;2023-12-14T16:10:33;102132.94;;;6.21;100.00
73651;BME280;61944;52.538;6.108;2023-12-14T16:12:58;102125.19;;;6.09;100.00
73651;BME280;61944;52.538;6.108;2023-12-14T16:15:24;102129.28;;;6.12;100.00
73651;BME280;61944;52.538;6.108;2023-12-14T16:17:49;102129.75;;;6.05;100.00
73651;BME280;61944;52.538;6.108;2023-12-14T16:20:14;102128.66;;;5.93;100.00
73651;BME280;61944;52.538;6.108;2023-12-14T16:22:42;102125.00;;;6.06;100.00
73651;BME280;61944;52.538;6.108;2023-12-14T16:25:07;102131.09;;;5.94;100.00
73651;BME280;61944;52.538;6.108;2023-12-14T16:27:34;102139.41;;;6.08;100.00
73651;BME280;61944;52.538;6.108;2023-12-14T16:30:00;102137.69;;;6.21;100.00
73651;BME280;61944;52.538;6.108;2023-12-14T16:32:25;102142.53;;;6.15;100.00
73651;BME280;61944;52.538;6.108;2023-12-14T16:34:52;102150.97;;;6.01;100.00
73651;BME280;61944;52.538;6.108;2023-12-14T16:37:18;102150.25;;;5.96;100.00
73651;BME280;61944;52.538;6.108;2023-12-14T16:39:43;102154.69;;;5.97;100.00
73651;BME280;61944;52.538;6.108;2023-12-14T16:42:09;102151.41;;;5.95;100.00
73651;BME280;61944;52.538;6.108;2023-12-14T16:44:34;102152.16;;;6.09;100.00
73651;BME280;61944;52.538;6.108;2023-12-14T16:47:02;102154.41;;;6.07;100.00
73651;BME280;61944;52.538;6.108;2023-12-14T16:49:28;102149.31;;;6.00;100.00
73651;BME280;61944;52.538;6.108;2023-12-14T16:51:53;102154.41;;;6.07;100.00
73651;BME280;61944;52.538;6.108;2023-12-14T16:54:18;102157.34;;;5.88;100.00
73651;BME280;61944;52.538;6.108;2023-12-14T16:56:44;102159.75;;;5.95;100.00
73651;BME280;61944;52.538;6.108;2023-12-14T16:59:10;102160.13;;;6.02;100.00
73651;BME280;61944;52.538;6.108;2023-12-14T17:01:35;102167.66;;;6.01;100.00
73651;BME280;61944;52.538;6.108;2023-12-14T17:04:04;102160.44;;;6.00;100.00
73651;BME280;61944;52.538;6.108;2023-12-14T17:06:30;102158.13;;;5.80;100.00
73651;BME280;61944;52.538;6.108;2023-12-14T17:08:55;102159.69;;;5.72;100.00
73651;BME280;61944;52.538;6.108;2023-12-14T17:11:20;102169.56;;;5.64;100.00
73651;BME280;61944;52.538;6.108;2023-12-14T17:13:46;102173.59;;;5.72;100.00
73651;BME280;61944;52.538;6.108;2023-12-14T17:16:16;102176.88;;;5.74;100.00
73651;BME280;61944;52.538;6.108;2023-12-14T17:18:42;102174.22;;;5.91;100.00
73651;BME280;61944;52.538;6.108;2023-12-14T17:21:24;102190.31;;;5.95;100.00
73651;BME280;61944;52.538;6.108;2023-12-14T17:23:50;102190.13;;;5.77;100.00
73651;BME280;61944;52.538;6.108;2023-12-14T17:26:16;102189.50;;;5.80;100.00
73651;BME280;61944;52.538;6.108;2023-12-14T17:28:46;102185.16;;;5.88;100.00
73651;BME280;61944;52.538;6.108;2023-12-14T17:31:12;102180.59;;;5.92;100.00
73651;BME280;61944;52.538;6.108;2023-12-14T17:33:38;102181.75;;;5.91;100.00
73651;BME280;61944;52.538;6.108;2023-12-14T17:36:04;102186.09;;;5.83;100.00
73651;BME280;61944;52.538;6.108;2023-12-14T17:38:30;102178.13;;;6.04;100.00
73651;BME280;61944;52.538;6.108;2023-12-14T17:40:55;102193.81;;;5.86;100.00
73651;BME280;61944;52.538;6.108;2023-12-14T17:43:23;102195.25;;;5.98;100.00
73651;BME280;61944;52.538;6.108;2023-12-14T17:45:48;102188.88;;;5.97;100.00
73651;BME280;61944;52.538;6.108;2023-12-14T17:48:14;102195.94;;;6.03;100.00
73651;BME280;61944;52.538;6.108;2023-12-14T17:50:39;102198.72;;;5.89;100.00
73651;BME280;61944;52.538;6.108;2023-12-14T17:53:04;102199.59;;;5.76;100.00
73651;BME280;61944;52.538;6.108;2023-12-14T17:55:30;102205.66;;;5.78;100.00
73651;BME280;61944;52.538;6.108;2023-12-14T17:57:55;102204.75;;;5.69;100.00
73651;BME280;61944;52.538;6.108;2023-12-14T18:00:21;102203.78;;;5.87;100.00
73651;BME280;61944;52.538;6.108;2023-12-14T18:02:47;102208.38;;;6.51;100.00
73651;BME280;61944;52.538;6.108;2023-12-14T18:05:12;102210.97;;;6.02;100.00
73651;BME280;61944;52.538;6.108;2023-12-14T18:07:38;102215.91;;;5.91;100.00
73651;BME280;61944;52.538;6.108;2023-12-14T18:10:03;102217.47;;;5.98;100.00
73651;BME280;61944;52.538;6.108;2023-12-14T18:12:29;102211.50;;;5.90;100.00
73651;BME280;61944;52.538;6.108;2023-12-14T18:14:54;102225.69;;;6.03;100.00
73651;BME280;61944;52.538;6.108;2023-12-14T18:17:20;102226.69;;;6.07;100.00
73651;BME280;61944;52.538;6.108;2023-12-14T18:19:45;102227.94;;;6.01;100.00
73651;BME280;61944;52.538;6.108;2023-12-14T18:22:10;102225.78;;;6.12;100.00
73651;BME280;61944;52.538;6.108;2023-12-14T18:24:36;102233.28;;;6.11;100.00
73651;BME280;61944;52.538;6.108;2023-12-14T18:27:01;102238.84;;;6.11;100.00
73651;BME280;61944;52.538;6.108;2023-12-14T18:29:27;102233.41;;;6.06;100.00
73651;BME280;61944;52.538;6.108;2023-12-14T18:31:53;102231.44;;;6.06;100.00